Time,TemperatureF,DewpointF,PressureIn,WindDirection,WindDirectionDegrees,WindSpeedMPH,WindSpeedGustMPH,Humidity,HourlyPrecipIn,Conditions,Clouds,dailyrainin,SoftwareType,DateUTC
2013-03-02 00:02:00,46.9,45.0,30.24,ENE,69,0.0,0.0,93,0.00,,,0.00,Wunderground v.1.12,2013-03-02 08:02:00,
2013-03-02 00:08:00,46.9,45.0,30.24,ENE,69,0.0,0.0,93,0.00,,,0.00,Wunderground v.1.12,2013-03-02 08:08:00,
2013-03-02 00:13:00,47.3,45.7,30.24,ENE,69,0.0,0.0,94,0.00,,,0.00,Wunderground v.1.12,2013-03-02 08:13:00,
2013-03-02 00:18:00,47.4,45.8,30.24,ENE,69,0.0,0.0,94,0.00,,,0.00,Wunderground v.1.12,2013-03-02 08:18:00,
2013-03-02 00:24:00,47.4,45.5,30.24,ENE,69,0.0,0.0,93,0.00,,,0.00,Wunderground v.1.12,2013-03-02 08:24:00,
2013-03-02 00:29:00,47.4,45.5,30.24,ENE,70,0.0,0.0,93,0.00,,,0.00,Wunderground v.1.12,2013-03-02 08:29:00,
2013-03-02 00:35:00,47.1,44.9,30.23,ENE,69,0.0,0.0,92,0.00,,,0.00,Wunderground v.1.12,2013-03-02 08:35:00,
2013-03-02 00:40:00,47.0,45.1,30.23,ENE,69,0.0,0.0,93,0.00,,,0.00,Wunderground v.1.12,2013-03-02 08:40:00,
2013-03-02 00:45:00,46.9,45.0,30.23,ENE,69,0.0,0.0,93,0.00,,,0.00,Wunderground v.1.12,2013-03-02 08:45:00,
2013-03-02 00:50:00,46.8,44.9,30.23,ENE,69,0.0,0.0,93,0.00,,,0.00,Wunderground v.1.12,2013-03-02 08:50:00,
2013-03-02 00:56:00,46.8,44.9,30.23,ENE,69,0.0,0.0,93,0.00,,,0.00,Wunderground v.1.12,2013-03-02 08:56:00,
2013-03-02 01:02:00,46.8,44.9,30.23,ENE,70,0.0,0.0,93,0.00,,,0.00,Wunderground v.1.12,2013-03-02 09:02:00,
2013-03-02 01:08:00,46.7,44.8,30.23,ENE,69,0.0,0.0,93,0.00,,,0.00,Wunderground v.1.12,2013-03-02 09:08:00,
2013-03-02 01:13:00,46.5,44.6,30.23,ENE,69,0.0,0.0,93,0.00,,,0.00,Wunderground v.1.12,2013-03-02 09:13:00,
2013-03-02 01:19:00,46.4,44.5,30.22,ENE,69,0.0,0.0,93,0.00,,,0.00,Wunderground v.1.12,2013-03-02 09:19:00,
2013-03-02 01:24:00,46.6,45.0,30.22,ENE,69,0.0,0.0,94,0.00,,,0.00,Wunderground v.1.12,2013-03-02 09:24:00,
2013-03-02 01:29:00,46.7,45.1,30.22,ENE,69,0.0,0.0,94,0.00,,,0.00,Wunderground v.1.12,2013-03-02 09:29:00,
2013-03-02 01:34:00,46.8,45.2,30.22,ENE,69,0.0,0.0,94,0.00,,,0.00,Wunderground v.1.12,2013-03-02 09:34:00,
2013-03-02 01:40:00,47.1,45.2,30.22,ENE,69,0.0,0.0,93,0.00,,,0.00,Wunderground v.1.12,2013-03-02 09:40:00,
2013-03-02 01:45:00,47.2,45.3,30.22,ENE,69,0.0,0.0,93,0.00,,,0.00,Wunderground v.1.12,2013-03-02 09:45:00,
2013-03-02 01:51:00,46.9,44.7,30.22,ENE,69,0.0,0.0,92,0.00,,,0.00,Wunderground v.1.12,2013-03-02 09:51:00,
2013-03-02 01:57:00,46.7,44.5,30.22,ENE,69,0.0,0.0,92,0.00,,,0.00,Wunderground v.1.12,2013-03-02 09:57:00,
2013-03-02 02:02:00,46.8,44.9,30.21,ENE,69,0.0,0.0,93,0.00,,,0.00,Wunderground v.1.12,2013-03-02 10:02:00,
2013-03-02 02:08:00,46.8,44.9,30.21,ENE,70,0.0,0.0,93,0.00,,,0.00,Wunderground v.1.12,2013-03-02 10:08:00,
2013-03-02 02:13:00,46.7,44.8,30.21,ENE,69,0.0,1.0,93,0.00,,,0.00,Wunderground v.1.12,2013-03-02 10:13:00,
2013-03-02 02:19:00,46.7,44.8,30.21,ENE,69,0.0,0.0,93,0.00,,,0.00,Wunderground v.1.12,2013-03-02 10:19:00,
2013-03-02 02:24:00,46.7,44.8,30.21,SE,133,1.0,1.0,93,0.00,,,0.00,Wunderground v.1.12,2013-03-02 10:24:00,
2013-03-02 02:29:00,46.7,44.5,30.21,SE,134,0.0,0.0,92,0.00,,,0.00,Wunderground v.1.12,2013-03-02 10:29:00,
2013-03-02 02:34:00,46.5,44.3,30.20,SE,133,0.0,1.0,92,0.00,,,0.00,Wunderground v.1.12,2013-03-02 10:34:00,
2013-03-02 02:39:00,46.4,44.2,30.20,SE,133,0.0,0.0,92,0.00,,,0.00,Wunderground v.1.12,2013-03-02 10:39:00,
2013-03-02 02:44:00,46.2,44.0,30.20,SE,133,0.0,0.0,92,0.00,,,0.00,Wunderground v.1.12,2013-03-02 10:44:00,
2013-03-02 02:50:00,46.0,44.1,30.20,SE,133,0.0,0.0,93,0.00,,,0.00,Wunderground v.1.12,2013-03-02 10:50:00,
2013-03-02 02:55:00,45.9,44.0,30.20,SE,134,0.0,0.0,93,0.00,,,0.00,Wunderground v.1.12,2013-03-02 10:55:00,
2013-03-02 03:00:00,46.0,44.4,30.20,SE,134,0.0,0.0,94,0.00,,,0.00,Wunderground v.1.12,2013-03-02 11:00:00,
2013-03-02 03:05:00,46.1,44.5,30.20,SE,133,0.0,0.0,94,0.00,,,0.00,Wunderground v.1.12,2013-03-02 11:05:00,
2013-03-02 03:10:00,46.1,44.5,30.20,SE,133,0.0,0.0,94,0.00,,,0.00,Wunderground v.1.12,2013-03-02 11:10:00,
2013-03-02 03:15:00,46.3,44.7,30.18,SE,133,1.0,1.0,94,0.00,,,0.00,Wunderground v.1.12,2013-03-02 11:15:00,
2013-03-02 03:20:00,46.4,44.5,30.18,SE,134,0.0,1.0,93,0.00,,,0.00,Wunderground v.1.12,2013-03-02 11:20:00,
2013-03-02 03:25:00,46.5,44.9,30.18,SE,133,0.0,0.0,94,0.00,,,0.00,Wunderground v.1.12,2013-03-02 11:25:00,
2013-03-02 03:30:00,46.6,44.7,30.18,SE,133,0.0,0.0,93,0.00,,,0.00,Wunderground v.1.12,2013-03-02 11:30:00,
2013-03-02 03:35:00,46.6,44.7,30.18,SE,134,0.0,0.0,93,0.00,,,0.00,Wunderground v.1.12,2013-03-02 11:35:00,
2013-03-02 03:40:00,46.5,44.6,30.18,SE,133,0.0,0.0,93,0.00,,,0.00,Wunderground v.1.12,2013-03-02 11:40:00,
2013-03-02 03:46:00,46.3,44.4,30.18,SE,134,0.0,0.0,93,0.00,,,0.00,Wunderground v.1.12,2013-03-02 11:46:00,
2013-03-02 03:51:00,46.1,44.2,30.18,SE,134,0.0,0.0,93,0.00,,,0.00,Wunderground v.1.12,2013-03-02 11:51:00,
2013-03-02 03:56:00,45.9,44.0,30.18,SE,134,0.0,0.0,93,0.00,,,0.00,Wunderground v.1.12,2013-03-02 11:56:00,
2013-03-02 04:01:00,45.7,43.8,30.18,SE,133,0.0,1.0,93,0.00,,,0.00,Wunderground v.1.12,2013-03-02 12:01:00,
2013-03-02 04:06:00,45.9,44.3,30.18,SE,133,0.0,0.0,94,0.00,,,0.00,Wunderground v.1.12,2013-03-02 12:06:00,
2013-03-02 04:11:00,46.0,44.4,30.18,SE,133,0.0,0.0,94,0.00,,,0.00,Wunderground v.1.12,2013-03-02 12:11:00,
2013-03-02 04:16:00,46.4,44.8,30.18,SE,133,0.0,0.0,94,0.00,,,0.00,Wunderground v.1.12,2013-03-02 12:16:00,
2013-03-02 04:21:00,46.6,45.0,30.18,SE,133,0.0,0.0,94,0.00,,,0.00,Wunderground v.1.12,2013-03-02 12:21:00,
2013-03-02 04:26:00,46.4,44.5,30.18,SE,133,0.0,0.0,93,0.00,,,0.00,Wunderground v.1.12,2013-03-02 12:26:00,
2013-03-02 04:32:00,46.3,44.7,30.18,SE,133,0.0,0.0,94,0.00,,,0.00,Wunderground v.1.12,2013-03-02 12:32:00,
2013-03-02 04:37:00,46.6,45.0,30.18,SE,133,0.0,0.0,94,0.00,,,0.00,Wunderground v.1.12,2013-03-02 12:37:00,
2013-03-02 04:42:00,46.5,44.6,30.18,SE,133,0.0,0.0,93,0.00,,,0.00,Wunderground v.1.12,2013-03-02 12:42:00,
2013-03-02 04:47:00,46.1,43.9,30.18,SE,133,0.0,0.0,92,0.00,,,0.00,Wunderground v.1.12,2013-03-02 12:47:00,
2013-03-02 04:52:00,45.8,43.9,30.18,SE,133,0.0,1.0,93,0.00,,,0.00,Wunderground v.1.12,2013-03-02 12:52:00,
2013-03-02 04:57:00,45.7,44.1,30.18,SE,133,0.0,0.0,94,0.00,,,0.00,Wunderground v.1.12,2013-03-02 12:57:00,
2013-03-02 05:02:00,46.1,44.5,30.18,SE,133,0.0,0.0,94,0.00,,,0.00,Wunderground v.1.12,2013-03-02 13:02:00,
2013-03-02 05:07:00,46.3,44.7,30.18,SE,133,0.0,1.0,94,0.00,,,0.00,Wunderground v.1.12,2013-03-02 13:07:00,
2013-03-02 05:12:00,46.4,44.8,30.18,SE,133,0.0,0.0,94,0.00,,,0.00,Wunderground v.1.12,2013-03-02 13:12:00,
2013-03-02 05:17:00,46.4,44.8,30.18,SE,134,0.0,0.0,94,0.00,,,0.00,Wunderground v.1.12,2013-03-02 13:17:00,
2013-03-02 05:22:00,46.4,44.8,30.18,SE,133,0.0,0.0,94,0.00,,,0.00,Wunderground v.1.12,2013-03-02 13:22:00,
2013-03-02 05:27:00,46.5,44.9,30.18,SE,133,0.0,0.0,94,0.00,,,0.00,Wunderground v.1.12,2013-03-02 13:27:00,
2013-03-02 05:32:00,46.6,44.7,30.18,SE,133,0.0,0.0,93,0.00,,,0.00,Wunderground v.1.12,2013-03-02 13:32:00,
2013-03-02 05:38:00,46.6,44.7,30.18,SE,133,0.0,0.0,93,0.00,,,0.00,Wunderground v.1.12,2013-03-02 13:38:00,
2013-03-02 05:43:00,46.4,44.5,30.18,SE,133,0.0,0.0,93,0.00,,,0.00,Wunderground v.1.12,2013-03-02 13:43:00,
2013-03-02 05:48:00,46.4,44.5,30.18,SE,134,1.0,1.0,93,0.00,,,0.00,Wunderground v.1.12,2013-03-02 13:48:00,
2013-03-02 05:53:00,46.4,44.5,30.18,SE,133,0.0,0.0,93,0.00,,,0.00,Wunderground v.1.12,2013-03-02 13:53:00,
2013-03-02 05:58:00,46.4,44.5,30.18,SE,133,1.0,1.0,93,0.00,,,0.00,Wunderground v.1.12,2013-03-02 13:58:00,
2013-03-02 06:03:00,46.3,44.4,30.18,SE,133,0.0,1.0,93,0.00,,,0.00,Wunderground v.1.12,2013-03-02 14:03:00,
2013-03-02 06:08:00,46.1,43.9,30.18,SE,133,0.0,0.0,92,0.00,,,0.00,Wunderground v.1.12,2013-03-02 14:08:00,
2013-03-02 06:13:00,46.0,44.1,30.18,SE,133,0.0,1.0,93,0.00,,,0.00,Wunderground v.1.12,2013-03-02 14:13:00,
2013-03-02 06:18:00,46.0,44.1,30.18,SE,134,1.0,1.0,93,0.00,,,0.00,Wunderground v.1.12,2013-03-02 14:18:00,
2013-03-02 06:23:00,45.8,43.9,30.18,SE,134,0.0,0.0,93,0.00,,,0.00,Wunderground v.1.12,2013-03-02 14:23:00,
2013-03-02 06:29:00,45.7,44.1,30.18,ESE,118,1.0,2.0,94,0.00,,,0.00,Wunderground v.1.12,2013-03-02 14:29:00,
2013-03-02 06:34:00,46.0,44.4,30.18,ESE,118,0.0,0.0,94,0.00,,,0.00,Wunderground v.1.12,2013-03-02 14:34:00,
2013-03-02 06:39:00,46.0,44.1,30.18,ESE,118,0.0,0.0,93,0.00,,,0.00,Wunderground v.1.12,2013-03-02 14:39:00,
2013-03-02 06:44:00,45.7,43.5,30.18,ESE,119,0.0,0.0,92,0.00,,,0.00,Wunderground v.1.12,2013-03-02 14:44:00,
2013-03-02 06:50:00,45.6,43.7,30.18,ESE,118,0.0,0.0,93,0.00,,,0.00,Wunderground v.1.12,2013-03-02 14:50:00,
2013-03-02 06:55:00,45.6,44.0,30.18,ESE,118,0.0,0.0,94,0.00,,,0.00,Wunderground v.1.12,2013-03-02 14:55:00,
2013-03-02 07:00:00,45.7,44.1,30.18,ESE,118,0.0,0.0,94,0.00,,,0.00,Wunderground v.1.12,2013-03-02 15:00:00,
2013-03-02 07:05:00,45.5,43.6,30.18,ESE,118,0.0,0.0,93,0.00,,,0.00,Wunderground v.1.12,2013-03-02 15:05:00,
2013-03-02 07:10:00,45.5,43.9,30.18,ESE,119,0.0,0.0,94,0.00,,,0.00,Wunderground v.1.12,2013-03-02 15:10:00,
2013-03-02 07:15:00,45.9,44.3,30.19,ESE,119,0.0,0.0,94,0.00,,,0.00,Wunderground v.1.12,2013-03-02 15:15:00,
2013-03-02 07:20:00,46.1,44.5,30.19,ESE,118,0.0,0.0,94,0.00,,,0.00,Wunderground v.1.12,2013-03-02 15:20:00,
2013-03-02 07:26:00,46.1,44.2,30.19,ESE,119,0.0,0.0,93,0.00,,,0.00,Wunderground v.1.12,2013-03-02 15:26:00,
2013-03-02 07:31:00,46.0,44.1,30.20,ESE,118,0.0,0.0,93,0.00,,,0.00,Wunderground v.1.12,2013-03-02 15:31:00,
2013-03-02 07:36:00,46.2,44.6,30.20,ESE,118,0.0,0.0,94,0.00,,,0.00,Wunderground v.1.12,2013-03-02 15:36:00,
2013-03-02 07:41:00,46.7,45.1,30.20,SSE,156,1.0,1.0,94,0.00,,,0.00,Wunderground v.1.12,2013-03-02 15:41:00,
2013-03-02 07:46:00,47.0,45.1,30.19,SSE,156,0.0,0.0,93,0.00,,,0.00,Wunderground v.1.12,2013-03-02 15:46:00,
2013-03-02 07:52:00,47.2,45.0,30.19,SSE,156,0.0,1.0,92,0.00,,,0.00,Wunderground v.1.12,2013-03-02 15:52:00,
2013-03-02 07:57:00,47.5,45.3,30.19,SSE,157,0.0,0.0,92,0.00,,,0.00,Wunderground v.1.12,2013-03-02 15:57:00,
2013-03-02 08:02:00,48.0,45.8,30.19,SSE,156,0.0,0.0,92,0.00,,,0.00,Wunderground v.1.12,2013-03-02 16:02:00,
2013-03-02 08:07:00,48.3,45.8,30.19,SSE,157,0.0,0.0,91,0.00,,,0.00,Wunderground v.1.12,2013-03-02 16:07:00,
2013-03-02 08:12:00,48.7,45.9,30.19,SSE,156,1.0,1.0,90,0.00,,,0.00,Wunderground v.1.12,2013-03-02 16:12:00,
2013-03-02 08:17:00,49.1,46.3,30.19,SSE,157,1.0,1.0,90,0.00,,,0.00,Wunderground v.1.12,2013-03-02 16:17:00,
2013-03-02 08:22:00,49.4,46.6,30.19,SSE,156,0.0,1.0,90,0.00,,,0.00,Wunderground v.1.12,2013-03-02 16:22:00,
2013-03-02 08:27:00,49.7,46.6,30.19,SSE,156,0.0,1.0,89,0.00,,,0.00,Wunderground v.1.12,2013-03-02 16:27:00,
2013-03-02 08:32:00,49.9,46.8,30.19,SSE,156,0.0,1.0,89,0.00,,,0.00,Wunderground v.1.12,2013-03-02 16:32:00,
2013-03-02 08:37:00,50.3,47.2,30.19,SSE,155,0.0,1.0,89,0.00,,,0.00,Wunderground v.1.12,2013-03-02 16:37:00,
2013-03-02 08:42:00,51.1,48.0,30.19,SSE,156,0.0,0.0,89,0.00,,,0.00,Wunderground v.1.12,2013-03-02 16:42:00,
2013-03-02 08:47:00,51.9,48.2,30.19,SSE,156,0.0,1.0,87,0.00,,,0.00,Wunderground v.1.12,2013-03-02 16:47:00,
2013-03-02 08:52:00,52.3,48.2,30.19,SSE,156,0.0,1.0,86,0.00,,,0.00,Wunderground v.1.12,2013-03-02 16:52:00,
2013-03-02 08:57:00,53.0,48.6,30.19,SSE,156,1.0,1.0,85,0.00,,,0.00,Wunderground v.1.12,2013-03-02 16:57:00,
2013-03-02 09:03:00,53.7,49.3,30.19,SSE,156,0.0,2.0,85,0.00,,,0.00,Wunderground v.1.12,2013-03-02 17:03:00,
2013-03-02 09:08:00,54.1,49.4,30.19,SSE,156,0.0,0.0,84,0.00,,,0.00,Wunderground v.1.12,2013-03-02 17:08:00,
2013-03-02 09:13:00,54.3,49.6,30.19,South,176,0.0,1.0,84,0.00,,,0.00,Wunderground v.1.12,2013-03-02 17:13:00,
2013-03-02 09:18:00,54.4,49.3,30.18,WSW,248,1.0,3.0,83,0.00,,,0.00,Wunderground v.1.12,2013-03-02 17:18:00,
2013-03-02 09:24:00,54.4,49.7,30.18,WSW,248,1.0,1.0,84,0.00,,,0.00,Wunderground v.1.12,2013-03-02 17:24:00,
2013-03-02 09:29:00,54.7,49.6,30.18,WSW,241,1.0,1.0,83,0.00,,,0.00,Wunderground v.1.12,2013-03-02 17:29:00,
2013-03-02 09:34:00,55.3,49.9,30.18,WSW,241,0.0,1.0,82,0.00,,,0.00,Wunderground v.1.12,2013-03-02 17:34:00,
2013-03-02 09:39:00,55.9,50.2,30.18,WSW,241,1.0,1.0,81,0.00,,,0.00,Wunderground v.1.12,2013-03-02 17:39:00,
2013-03-02 09:45:00,56.5,50.4,30.18,WSW,240,0.0,1.0,80,0.00,,,0.00,Wunderground v.1.12,2013-03-02 17:45:00,
2013-03-02 09:50:00,57.0,50.9,30.19,WSW,240,0.0,0.0,80,0.00,,,0.00,Wunderground v.1.12,2013-03-02 17:50:00,
2013-03-02 09:55:00,58.0,51.9,30.19,SSE,160,0.0,1.0,80,0.00,,,0.00,Wunderground v.1.12,2013-03-02 17:55:00,
2013-03-02 10:00:00,58.2,51.0,30.17,South,183,1.0,1.0,77,0.00,,,0.00,Wunderground v.1.12,2013-03-02 18:00:00,
2013-03-02 10:05:00,58.0,50.8,30.17,South,184,0.0,0.0,77,0.00,,,0.00,Wunderground v.1.12,2013-03-02 18:05:00,
2013-03-02 10:10:00,58.2,51.0,30.17,WNW,290,1.0,1.0,77,0.00,,,0.00,Wunderground v.1.12,2013-03-02 18:10:00,
2013-03-02 10:15:00,58.6,51.1,30.17,WNW,288,1.0,1.0,76,0.00,,,0.00,Wunderground v.1.12,2013-03-02 18:15:00,
2013-03-02 10:20:00,59.2,51.3,30.17,WSW,253,0.0,1.0,75,0.00,,,0.00,Wunderground v.1.12,2013-03-02 18:20:00,
2013-03-02 10:26:00,60.0,51.3,30.17,SSE,163,0.0,1.0,73,0.00,,,0.00,Wunderground v.1.12,2013-03-02 18:26:00,
2013-03-02 10:31:00,60.7,52.0,30.16,SSW,208,1.0,1.0,73,0.00,,,0.00,Wunderground v.1.12,2013-03-02 18:31:00,
2013-03-02 10:36:00,61.1,51.6,30.16,South,175,1.0,2.0,71,0.00,,,0.00,Wunderground v.1.12,2013-03-02 18:36:00,
2013-03-02 10:41:00,61.3,52.2,30.16,WSW,237,2.0,2.0,72,0.00,,,0.00,Wunderground v.1.12,2013-03-02 18:41:00,
2013-03-02 10:46:00,61.7,51.8,30.16,SW,222,0.0,2.0,70,0.00,,,0.00,Wunderground v.1.12,2013-03-02 18:46:00,
2013-03-02 10:51:00,62.8,52.5,30.16,SW,225,0.0,1.0,69,0.00,,,0.00,Wunderground v.1.12,2013-03-02 18:51:00,
2013-03-02 10:56:00,63.7,51.7,30.16,West,262,1.0,1.0,65,0.00,,,0.00,Wunderground v.1.12,2013-03-02 18:56:00,
2013-03-02 11:01:00,64.9,52.8,30.15,SSW,211,1.0,2.0,65,0.00,,,0.00,Wunderground v.1.12,2013-03-02 19:01:00,
2013-03-02 11:06:00,65.8,52.9,30.15,East,79,1.0,1.0,63,0.00,,,0.00,Wunderground v.1.12,2013-03-02 19:06:00,
2013-03-02 11:11:00,66.9,52.6,30.15,ESE,113,3.0,4.0,60,0.00,,,0.00,Wunderground v.1.12,2013-03-02 19:11:00,
2013-03-02 11:16:00,66.7,52.4,30.15,ESE,107,2.0,2.0,60,0.00,,,0.00,Wunderground v.1.12,2013-03-02 19:16:00,
2013-03-02 11:21:00,66.9,51.6,30.15,ESE,116,0.0,2.0,58,0.00,,,0.00,Wunderground v.1.12,2013-03-02 19:21:00,
2013-03-02 11:27:00,67.9,52.6,30.15,ESE,115,0.0,1.0,58,0.00,,,0.00,Wunderground v.1.12,2013-03-02 19:27:00,
2013-03-02 11:32:00,68.6,51.3,30.14,ESE,102,1.0,2.0,54,0.00,,,0.00,Wunderground v.1.12,2013-03-02 19:32:00,
2013-03-02 11:37:00,68.9,51.6,30.14,WSW,241,0.0,3.0,54,0.00,,,0.00,Wunderground v.1.12,2013-03-02 19:37:00,
2013-03-02 11:42:00,69.4,52.5,30.14,SE,134,0.0,1.0,55,0.00,,,0.00,Wunderground v.1.12,2013-03-02 19:42:00,
2013-03-02 11:47:00,69.7,52.3,30.13,ESE,105,1.0,1.0,54,0.00,,,0.00,Wunderground v.1.12,2013-03-02 19:47:00,
2013-03-02 11:52:00,69.6,51.7,30.13,ESE,110,1.0,3.0,53,0.00,,,0.00,Wunderground v.1.12,2013-03-02 19:52:00,
2013-03-02 11:57:00,69.1,51.2,30.13,East,98,1.0,3.0,53,0.00,,,0.00,Wunderground v.1.12,2013-03-02 19:57:00,
2013-03-02 12:02:00,69.7,51.8,30.14,ESE,112,1.0,1.0,53,0.00,,,0.00,Wunderground v.1.12,2013-03-02 20:02:00,
2013-03-02 12:08:00,69.8,51.4,30.14,ESE,104,0.0,1.0,52,0.00,,,0.00,Wunderground v.1.12,2013-03-02 20:08:00,
2013-03-02 12:13:00,70.1,51.7,30.14,ESE,105,1.0,2.0,52,0.00,,,0.00,Wunderground v.1.12,2013-03-02 20:13:00,
2013-03-02 12:18:00,69.9,50.4,30.13,ESE,111,0.0,1.0,50,0.00,,,0.00,Wunderground v.1.12,2013-03-02 20:18:00,
2013-03-02 12:23:00,70.6,50.5,30.13,East,99,0.0,2.0,49,0.00,,,0.00,Wunderground v.1.12,2013-03-02 20:23:00,
2013-03-02 12:28:00,70.6,49.4,30.13,ESE,116,2.0,3.0,47,0.00,,,0.00,Wunderground v.1.12,2013-03-02 20:28:00,
2013-03-02 12:33:00,70.3,50.8,30.12,ESE,115,1.0,1.0,50,0.00,,,0.00,Wunderground v.1.12,2013-03-02 20:33:00,
2013-03-02 12:38:00,70.6,51.1,30.12,East,80,1.0,1.0,50,0.00,,,0.00,Wunderground v.1.12,2013-03-02 20:38:00,
2013-03-02 12:43:00,70.6,50.5,30.12,ESE,111,1.0,1.0,49,0.00,,,0.00,Wunderground v.1.12,2013-03-02 20:43:00,
2013-03-02 12:48:00,70.7,51.1,30.11,ESE,110,1.0,1.0,50,0.00,,,0.00,Wunderground v.1.12,2013-03-02 20:48:00,
2013-03-02 12:53:00,71.4,51.2,30.11,East,97,1.0,2.0,49,0.00,,,0.00,Wunderground v.1.12,2013-03-02 20:53:00,
2013-03-02 12:58:00,71.6,51.4,30.11,ESE,114,0.0,4.0,49,0.00,,,0.00,Wunderground v.1.12,2013-03-02 20:58:00,
2013-03-02 13:04:00,71.9,51.1,30.10,ENE,65,0.0,2.0,48,0.00,,,0.00,Wunderground v.1.12,2013-03-02 21:04:00,
2013-03-02 13:09:00,72.2,50.8,30.10,West,277,3.0,4.0,47,0.00,,,0.00,Wunderground v.1.12,2013-03-02 21:09:00,
2013-03-02 13:14:00,71.6,50.9,30.10,WNW,292,3.0,4.0,48,0.00,,,0.00,Wunderground v.1.12,2013-03-02 21:14:00,
2013-03-02 13:19:00,71.3,50.6,30.10,WNW,295,3.0,4.0,48,0.00,,,0.00,Wunderground v.1.12,2013-03-02 21:19:00,
2013-03-02 13:24:00,71.3,50.6,30.10,NNE,15,3.0,4.0,48,0.00,,,0.00,Wunderground v.1.12,2013-03-02 21:24:00,
2013-03-02 13:29:00,71.2,50.5,30.10,NNE,32,1.0,4.0,48,0.00,,,0.00,Wunderground v.1.12,2013-03-02 21:29:00,
2013-03-02 13:34:00,71.3,51.1,30.09,NW,324,1.0,2.0,49,0.00,,,0.00,Wunderground v.1.12,2013-03-02 21:34:00,
2013-03-02 13:39:00,71.2,51.1,30.09,NW,317,2.0,5.0,49,0.00,,,0.00,Wunderground v.1.12,2013-03-02 21:39:00,
2013-03-02 13:44:00,70.8,51.2,30.09,NE,39,1.0,3.0,50,0.00,,,0.00,Wunderground v.1.12,2013-03-02 21:44:00,
2013-03-02 13:49:00,70.8,51.2,30.09,NE,39,0.0,4.0,50,0.00,,,0.00,Wunderground v.1.12,2013-03-02 21:49:00,
2013-03-02 13:54:00,70.9,51.9,30.09,NW,315,0.0,2.0,51,0.00,,,0.00,Wunderground v.1.12,2013-03-02 21:54:00,
2013-03-02 13:59:00,71.0,52.5,30.09,WNW,292,2.0,2.0,52,0.00,,,0.00,Wunderground v.1.12,2013-03-02 21:59:00,
2013-03-02 14:05:00,70.7,52.2,30.09,NW,322,2.0,2.0,52,0.00,,,0.00,Wunderground v.1.12,2013-03-02 22:05:00,
2013-03-02 14:10:00,70.4,51.4,30.09,NW,304,2.0,2.0,51,0.00,,,0.00,Wunderground v.1.12,2013-03-02 22:10:00,
2013-03-02 14:15:00,70.3,51.8,30.09,WNW,283,1.0,2.0,52,0.00,,,0.00,Wunderground v.1.12,2013-03-02 22:15:00,
2013-03-02 14:20:00,70.3,52.9,30.07,West,263,4.0,4.0,54,0.00,,,0.00,Wunderground v.1.12,2013-03-02 22:20:00,
2013-03-02 14:25:00,70.0,52.1,30.07,WNW,287,3.0,3.0,53,0.00,,,0.00,Wunderground v.1.12,2013-03-02 22:25:00,
2013-03-02 14:30:00,69.8,51.9,30.07,West,276,3.0,5.0,53,0.00,,,0.00,Wunderground v.1.12,2013-03-02 22:30:00,
2013-03-02 14:35:00,69.6,51.7,30.07,NW,315,2.0,6.0,53,0.00,,,0.00,Wunderground v.1.12,2013-03-02 22:35:00,
2013-03-02 14:41:00,69.4,51.0,30.07,WNW,290,3.0,6.0,52,0.00,,,0.00,Wunderground v.1.12,2013-03-02 22:41:00,
2013-03-02 14:46:00,69.4,51.5,30.07,NNE,24,1.0,4.0,53,0.00,,,0.00,Wunderground v.1.12,2013-03-02 22:46:00,
2013-03-02 14:51:00,69.4,51.5,30.07,NNW,329,4.0,4.0,53,0.00,,,0.00,Wunderground v.1.12,2013-03-02 22:51:00,
2013-03-02 14:56:00,69.2,51.3,30.07,NW,313,2.0,3.0,53,0.00,,,0.00,Wunderground v.1.12,2013-03-02 22:56:00,
2013-03-02 15:01:00,69.2,51.8,30.07,NE,40,2.0,4.0,54,0.00,,,0.00,Wunderground v.1.12,2013-03-02 23:01:00,
2013-03-02 15:06:00,69.4,52.0,30.07,NE,44,1.0,2.0,54,0.00,,,0.00,Wunderground v.1.12,2013-03-02 23:06:00,
2013-03-02 15:11:00,69.5,52.1,30.07,NW,313,2.0,2.0,54,0.00,,,0.00,Wunderground v.1.12,2013-03-02 23:11:00,
2013-03-02 15:16:00,69.5,52.1,30.07,NE,35,2.0,5.0,54,0.00,,,0.00,Wunderground v.1.12,2013-03-02 23:16:00,
2013-03-02 15:21:00,69.4,52.0,30.07,NNW,334,2.0,4.0,54,0.00,,,0.00,Wunderground v.1.12,2013-03-02 23:21:00,
2013-03-02 15:26:00,69.3,52.4,30.07,NE,39,1.0,3.0,55,0.00,,,0.00,Wunderground v.1.12,2013-03-02 23:26:00,
2013-03-02 15:31:00,69.4,53.0,30.06,NE,42,0.0,2.0,56,0.00,,,0.00,Wunderground v.1.12,2013-03-02 23:31:00,
2013-03-02 15:36:00,69.4,52.0,30.06,NE,44,0.0,1.0,54,0.00,,,0.00,Wunderground v.1.12,2013-03-02 23:36:00,
2013-03-02 15:41:00,69.4,52.0,30.06,NE,44,1.0,1.0,54,0.00,,,0.00,Wunderground v.1.12,2013-03-02 23:41:00,
2013-03-02 15:46:00,69.2,51.8,30.07,WNW,291,3.0,3.0,54,0.00,,,0.00,Wunderground v.1.12,2013-03-02 23:46:00,
2013-03-02 15:52:00,68.9,52.1,30.07,NW,321,0.0,1.0,55,0.00,,,0.00,Wunderground v.1.12,2013-03-02 23:52:00,
2013-03-02 15:57:00,68.8,51.5,30.07,NNW,331,1.0,1.0,54,0.00,,,0.00,Wunderground v.1.12,2013-03-02 23:57:00,
2013-03-02 16:02:00,68.7,51.4,30.07,WNW,303,2.0,2.0,54,0.00,,,0.00,Wunderground v.1.12,2013-03-03 00:02:00,
2013-03-02 16:07:00,68.5,51.7,30.07,WNW,295,2.0,4.0,55,0.00,,,0.00,Wunderground v.1.12,2013-03-03 00:07:00,
2013-03-02 16:12:00,68.4,52.1,30.07,NW,307,1.0,2.0,56,0.00,,,0.00,Wunderground v.1.12,2013-03-03 00:12:00,
2013-03-02 16:17:00,68.4,52.6,30.06,West,280,3.0,3.0,57,0.00,,,0.00,Wunderground v.1.12,2013-03-03 00:17:00,
2013-03-02 16:22:00,68.2,52.4,30.06,West,273,0.0,3.0,57,0.00,,,0.00,Wunderground v.1.12,2013-03-03 00:22:00,
2013-03-02 16:27:00,68.2,52.9,30.06,West,273,1.0,2.0,58,0.00,,,0.00,Wunderground v.1.12,2013-03-03 00:27:00,
2013-03-02 16:32:00,68.0,52.7,30.06,NW,309,2.0,4.0,58,0.00,,,0.00,Wunderground v.1.12,2013-03-03 00:32:00,
2013-03-02 16:37:00,67.8,52.9,30.06,NW,311,3.0,3.0,59,0.00,,,0.00,Wunderground v.1.12,2013-03-03 00:37:00,
2013-03-02 16:42:00,67.7,52.9,30.06,WNW,303,2.0,3.0,59,0.00,,,0.00,Wunderground v.1.12,2013-03-03 00:42:00,
2013-03-02 16:47:00,67.5,52.7,30.06,West,259,1.0,2.0,59,0.00,,,0.00,Wunderground v.1.12,2013-03-03 00:47:00,
2013-03-02 16:52:00,67.2,52.8,30.06,West,279,1.0,2.0,60,0.00,,,0.00,Wunderground v.1.12,2013-03-03 00:52:00,
2013-03-02 16:57:00,67.0,53.1,30.06,WNW,292,1.0,2.0,61,0.00,,,0.00,Wunderground v.1.12,2013-03-03 00:57:00,
2013-03-02 17:02:00,66.8,52.9,30.05,WNW,288,1.0,2.0,61,0.00,,,0.00,Wunderground v.1.12,2013-03-03 01:02:00,
2013-03-02 17:07:00,66.7,52.8,30.05,WNW,288,0.0,1.0,61,0.00,,,0.00,Wunderground v.1.12,2013-03-03 01:07:00,
2013-03-02 17:12:00,66.5,53.1,30.05,WNW,288,0.0,0.0,62,0.00,,,0.00,Wunderground v.1.12,2013-03-03 01:12:00,
2013-03-02 17:17:00,66.2,53.2,30.04,WNW,288,0.0,0.0,63,0.00,,,0.00,Wunderground v.1.12,2013-03-03 01:17:00,
2013-03-02 17:23:00,65.9,53.4,30.04,WNW,288,0.0,1.0,64,0.00,,,0.00,Wunderground v.1.12,2013-03-03 01:23:00,
2013-03-02 17:28:00,65.5,53.4,30.04,WNW,288,0.0,1.0,65,0.00,,,0.00,Wunderground v.1.12,2013-03-03 01:28:00,
2013-03-02 17:33:00,65.2,53.6,30.05,WNW,288,1.0,1.0,66,0.00,,,0.00,Wunderground v.1.12,2013-03-03 01:33:00,
2013-03-02 17:38:00,65.1,53.0,30.05,WNW,288,1.0,1.0,65,0.00,,,0.00,Wunderground v.1.12,2013-03-03 01:38:00,
2013-03-02 17:43:00,65.2,53.1,30.05,NW,304,3.0,4.0,65,0.00,,,0.00,Wunderground v.1.12,2013-03-03 01:43:00,
2013-03-02 17:48:00,65.2,53.1,30.06,WNW,286,2.0,3.0,65,0.00,,,0.00,Wunderground v.1.12,2013-03-03 01:48:00,
2013-03-02 17:53:00,65.1,53.0,30.06,NNW,331,1.0,3.0,65,0.00,,,0.00,Wunderground v.1.12,2013-03-03 01:53:00,
2013-03-02 17:59:00,64.9,52.8,30.06,NW,325,1.0,2.0,65,0.00,,,0.00,Wunderground v.1.12,2013-03-03 01:59:00,
2013-03-02 18:04:00,64.7,52.7,30.06,NW,306,3.0,6.0,65,0.00,,,0.00,Wunderground v.1.12,2013-03-03 02:04:00,
2013-03-02 18:09:00,64.5,52.5,30.06,NNW,338,2.0,5.0,65,0.00,,,0.00,Wunderground v.1.12,2013-03-03 02:09:00,
2013-03-02 18:14:00,64.3,52.7,30.06,West,273,1.0,3.0,66,0.00,,,0.00,Wunderground v.1.12,2013-03-03 02:14:00,
2013-03-02 18:19:00,64.0,52.8,30.05,NW,309,2.0,3.0,67,0.00,,,0.00,Wunderground v.1.12,2013-03-03 02:19:00,
2013-03-02 18:24:00,63.6,52.4,30.05,WNW,288,2.0,3.0,67,0.00,,,0.00,Wunderground v.1.12,2013-03-03 02:24:00,
2013-03-02 18:29:00,63.3,52.6,30.05,NW,323,0.0,4.0,68,0.00,,,0.00,Wunderground v.1.12,2013-03-03 02:29:00,
2013-03-02 18:34:00,63.0,52.3,30.06,NNW,346,1.0,2.0,68,0.00,,,0.00,Wunderground v.1.12,2013-03-03 02:34:00,
2013-03-02 18:40:00,62.7,52.4,30.06,NW,309,2.0,2.0,69,0.00,,,0.00,Wunderground v.1.12,2013-03-03 02:40:00,
2013-03-02 18:45:00,62.3,52.4,30.06,West,273,2.0,2.0,70,0.00,,,0.00,Wunderground v.1.12,2013-03-03 02:45:00,
2013-03-02 18:50:00,62.0,52.1,30.06,West,273,0.0,1.0,70,0.00,,,0.00,Wunderground v.1.12,2013-03-03 02:50:00,
2013-03-02 18:55:00,61.8,52.3,30.06,West,271,0.0,0.0,71,0.00,,,0.00,Wunderground v.1.12,2013-03-03 02:55:00,
2013-03-02 19:00:00,61.6,52.1,30.06,West,271,0.0,0.0,71,0.00,,,0.00,Wunderground v.1.12,2013-03-03 03:00:00,
2013-03-02 19:05:00,61.4,52.3,30.06,West,272,0.0,0.0,72,0.00,,,0.00,Wunderground v.1.12,2013-03-03 03:05:00,
2013-03-02 19:10:00,61.1,52.0,30.06,WNW,283,1.0,1.0,72,0.00,,,0.00,Wunderground v.1.12,2013-03-03 03:10:00,
2013-03-02 19:15:00,60.8,52.1,30.06,NW,306,0.0,0.0,73,0.00,,,0.00,Wunderground v.1.12,2013-03-03 03:15:00,
2013-03-02 19:21:00,60.6,51.9,30.06,SW,236,1.0,2.0,73,0.00,,,0.00,Wunderground v.1.12,2013-03-03 03:21:00,
2013-03-02 19:26:00,60.5,51.8,30.06,SW,236,0.0,1.0,73,0.00,,,0.00,Wunderground v.1.12,2013-03-03 03:26:00,
2013-03-02 19:31:00,60.4,51.7,30.06,WNW,300,1.0,4.0,73,0.00,,,0.00,Wunderground v.1.12,2013-03-03 03:31:00,
2013-03-02 19:36:00,60.3,51.6,30.06,NE,38,2.0,3.0,73,0.00,,,0.00,Wunderground v.1.12,2013-03-03 03:36:00,
2013-03-02 19:42:00,60.0,51.7,30.06,NE,42,0.0,2.0,74,0.00,,,0.00,Wunderground v.1.12,2013-03-03 03:42:00,
2013-03-02 19:47:00,59.7,51.8,30.06,NE,42,0.0,1.0,75,0.00,,,0.00,Wunderground v.1.12,2013-03-03 03:47:00,
2013-03-02 19:52:00,59.3,51.4,30.06,North,10,1.0,2.0,75,0.00,,,0.00,Wunderground v.1.12,2013-03-03 03:52:00,
2013-03-02 19:57:00,59.0,51.4,30.06,NE,39,2.0,3.0,76,0.00,,,0.00,Wunderground v.1.12,2013-03-03 03:57:00,
2013-03-02 20:02:00,58.8,51.2,30.06,NNW,335,2.0,3.0,76,0.00,,,0.00,Wunderground v.1.12,2013-03-03 04:02:00,
2013-03-02 20:07:00,58.7,51.2,30.06,West,265,0.0,2.0,76,0.00,,,0.00,Wunderground v.1.12,2013-03-03 04:07:00,
2013-03-02 20:12:00,58.6,51.1,30.06,West,265,0.0,1.0,76,0.00,,,0.00,Wunderground v.1.12,2013-03-03 04:12:00,
2013-03-02 20:18:00,58.4,50.9,30.06,West,265,0.0,1.0,76,0.00,,,0.00,Wunderground v.1.12,2013-03-03 04:18:00,
2013-03-02 20:23:00,58.2,50.7,30.06,NE,39,2.0,3.0,76,0.00,,,0.00,Wunderground v.1.12,2013-03-03 04:23:00,
2013-03-02 20:28:00,58.0,50.1,30.06,NE,40,1.0,2.0,75,0.00,,,0.00,Wunderground v.1.12,2013-03-03 04:28:00,
2013-03-02 20:33:00,57.9,50.0,30.07,ENE,61,1.0,1.0,75,0.00,,,0.00,Wunderground v.1.12,2013-03-03 04:33:00,
2013-03-02 20:39:00,57.7,50.2,30.07,ENE,62,0.0,1.0,76,0.00,,,0.00,Wunderground v.1.12,2013-03-03 04:39:00,
2013-03-02 20:44:00,57.5,50.0,30.07,NW,319,1.0,3.0,76,0.00,,,0.00,Wunderground v.1.12,2013-03-03 04:44:00,
2013-03-02 20:49:00,57.3,49.8,30.08,NW,319,0.0,4.0,76,0.00,,,0.00,Wunderground v.1.12,2013-03-03 04:49:00,
2013-03-02 20:54:00,57.1,49.6,30.08,NW,311,1.0,2.0,76,0.00,,,0.00,Wunderground v.1.12,2013-03-03 04:54:00,
2013-03-02 20:59:00,56.9,49.4,30.08,NW,304,0.0,3.0,76,0.00,,,0.00,Wunderground v.1.12,2013-03-03 04:59:00,
2013-03-02 21:00:00,56.9,49.4,30.08,WNW,289,1.0,1.0,76,0.00,,,0.00,Wunderground v.1.12,2013-03-03 05:00:00,
2013-03-02 21:01:00,56.9,49.4,30.07,WNW,298,1.0,3.0,76,0.00,,,0.00,Wunderground v.1.12,2013-03-03 05:01:00,
2013-03-02 21:06:00,56.8,49.3,30.07,WNW,284,0.0,1.0,76,0.00,,,0.00,Wunderground v.1.12,2013-03-03 05:06:00,
2013-03-02 21:11:00,56.7,49.2,30.07,NE,44,0.0,1.0,76,0.00,,,0.00,Wunderground v.1.12,2013-03-03 05:11:00,
2013-03-02 21:16:00,56.5,49.4,30.08,East,94,1.0,1.0,77,0.00,,,0.00,Wunderground v.1.12,2013-03-03 05:16:00,
2013-03-02 21:21:00,56.3,49.2,30.08,ESE,107,0.0,1.0,77,0.00,,,0.00,Wunderground v.1.12,2013-03-03 05:21:00,
2013-03-02 21:26:00,56.1,49.0,30.08,ESE,107,0.0,0.0,77,0.00,,,0.00,Wunderground v.1.12,2013-03-03 05:26:00,
2013-03-02 21:31:00,55.9,49.1,30.09,ESE,107,0.0,0.0,78,0.00,,,0.00,Wunderground v.1.12,2013-03-03 05:31:00,
2013-03-02 21:36:00,55.7,48.9,30.09,ESE,108,0.0,0.0,78,0.00,,,0.00,Wunderground v.1.12,2013-03-03 05:36:00,
2013-03-02 21:42:00,55.5,49.1,30.09,ESE,107,0.0,0.0,79,0.00,,,0.00,Wunderground v.1.12,2013-03-03 05:42:00,
2013-03-02 21:47:00,55.3,48.9,30.09,ESE,107,1.0,1.0,79,0.00,,,0.00,Wunderground v.1.12,2013-03-03 05:47:00,
2013-03-02 21:52:00,55.2,48.8,30.09,ESE,108,0.0,0.0,79,0.00,,,0.00,Wunderground v.1.12,2013-03-03 05:52:00,
2013-03-02 21:57:00,55.1,49.0,30.09,ESE,108,0.0,0.0,80,0.00,,,0.00,Wunderground v.1.12,2013-03-03 05:57:00,
2013-03-02 22:02:00,54.9,48.8,30.07,ESE,108,0.0,0.0,80,0.00,,,0.00,Wunderground v.1.12,2013-03-03 06:02:00,
2013-03-02 22:07:00,54.8,48.7,30.07,ESE,108,0.0,0.0,80,0.00,,,0.00,Wunderground v.1.12,2013-03-03 06:07:00,
2013-03-02 22:12:00,54.6,48.9,30.07,ESE,108,0.0,0.0,81,0.00,,,0.00,Wunderground v.1.12,2013-03-03 06:12:00,
2013-03-02 22:18:00,54.5,48.8,30.07,ESE,108,0.0,0.0,81,0.00,,,0.00,Wunderground v.1.12,2013-03-03 06:18:00,
2013-03-02 22:23:00,54.4,48.7,30.07,ESE,107,0.0,0.0,81,0.00,,,0.00,Wunderground v.1.12,2013-03-03 06:23:00,
2013-03-02 22:28:00,54.2,48.5,30.07,ESE,108,0.0,0.0,81,0.00,,,0.00,Wunderground v.1.12,2013-03-03 06:28:00,
2013-03-02 22:33:00,54.0,48.3,30.07,ESE,108,0.0,0.0,81,0.00,,,0.00,Wunderground v.1.12,2013-03-03 06:33:00,
2013-03-02 22:38:00,53.8,48.4,30.07,ESE,108,0.0,1.0,82,0.00,,,0.00,Wunderground v.1.12,2013-03-03 06:38:00,
2013-03-02 22:44:00,53.6,48.2,30.07,ESE,108,0.0,0.0,82,0.00,,,0.00,Wunderground v.1.12,2013-03-03 06:44:00,
2013-03-02 22:49:00,53.4,48.4,30.07,ESE,108,0.0,0.0,83,0.00,,,0.00,Wunderground v.1.12,2013-03-03 06:49:00,
2013-03-02 22:54:00,53.3,48.3,30.07,ESE,107,0.0,0.0,83,0.00,,,0.00,Wunderground v.1.12,2013-03-03 06:54:00,
2013-03-02 22:59:00,53.0,48.0,30.07,ESE,108,0.0,0.0,83,0.00,,,0.00,Wunderground v.1.12,2013-03-03 06:59:00,
2013-03-02 23:04:00,52.8,48.1,30.07,ESE,108,0.0,0.0,84,0.00,,,0.00,Wunderground v.1.12,2013-03-03 07:04:00,
2013-03-02 23:09:00,52.5,47.8,30.07,ESE,108,0.0,0.0,84,0.00,,,0.00,Wunderground v.1.12,2013-03-03 07:09:00,
2013-03-02 23:14:00,52.2,47.8,30.07,ESE,108,0.0,0.0,85,0.00,,,0.00,Wunderground v.1.12,2013-03-03 07:14:00,
2013-03-02 23:20:00,52.3,47.9,30.07,ESE,108,0.0,0.0,85,0.00,,,0.00,Wunderground v.1.12,2013-03-03 07:20:00,
2013-03-02 23:25:00,52.1,47.7,30.07,ESE,107,0.0,0.0,85,0.00,,,0.00,Wunderground v.1.12,2013-03-03 07:25:00,
2013-03-02 23:30:00,52.0,47.9,30.06,ESE,108,0.0,0.0,86,0.00,,,0.00,Wunderground v.1.12,2013-03-03 07:30:00,
2013-03-02 23:35:00,52.2,48.1,30.06,ESE,108,0.0,0.0,86,0.00,,,0.00,Wunderground v.1.12,2013-03-03 07:35:00,
2013-03-02 23:40:00,52.2,48.1,30.06,ESE,108,0.0,1.0,86,0.00,,,0.00,Wunderground v.1.12,2013-03-03 07:40:00,
2013-03-02 23:45:00,52.2,48.1,30.06,ESE,107,0.0,0.0,86,0.00,,,0.00,Wunderground v.1.12,2013-03-03 07:45:00,
2013-03-02 23:50:00,52.1,47.7,30.06,ESE,108,0.0,0.0,85,0.00,,,0.00,Wunderground v.1.12,2013-03-03 07:50:00,
2013-03-02 23:55:00,51.8,47.7,30.06,ESE,107,0.0,0.0,86,0.00,,,0.00,Wunderground v.1.12,2013-03-03 07:55:00,